Time;durP1;ratioP1;P1;durP2;ratioP2;P2;SDS_P1;SDS_P2;PMS_P1;PMS_P2;Temp;Humidity;BMP_temperature;BMP_pressure;BME280_temperature;BME280_humidity;BME280_pressure;Samples;Min_cycle;Max_cycle;Signal;HPM_P1;HPM_P2
2022/05/02 00:02:06;;;;;;;;;17.50;17.50;;;;;13.32;51.93;101726.31;5098551;27;45816;-70
2022/05/02 00:04:32;;;;;;;;;17.33;17.33;;;;;13.32;51.66;101723.59;5091874;27;45533;-71
2022/05/02 00:06:57;;;;;;;;;14.33;14.33;;;;;13.21;52.38;101712.81;5097940;27;45614;-70
2022/05/02 00:09:22;;;;;;;;;18.75;17.00;;;;;13.21;52.55;101716.41;5091701;27;46451;-71
2022/05/02 00:11:48;;;;;;;;;16.00;15.50;;;;;13.14;52.55;101704.34;5089146;27;45399;-71
2022/05/02 00:14:13;;;;;;;;;18.50;16.00;;;;;13.19;52.42;101696.56;5090463;27;45933;-71
2022/05/02 00:16:39;;;;;;;;;15.00;15.00;;;;;13.27;52.24;101697.72;5102468;27;45352;-70
2022/05/02 00:19:04;;;;;;;;;17.00;14.00;;;;;13.27;52.10;101692.28;5096321;27;47430;-72
2022/05/02 00:21:30;;;;;;;;;17.75;17.00;;;;;13.24;52.47;101699.72;5103198;27;45255;-71
2022/05/02 00:23:55;;;;;;;;;19.75;16.50;;;;;13.10;52.73;101696.53;5102941;27;45516;-71
2022/05/02 00:26:20;;;;;;;;;27.00;19.75;;;;;13.00;52.67;101679.31;5103300;27;45263;-71
2022/05/02 00:28:47;;;;;;;;;29.00;29.00;;;;;13.03;52.55;101689.91;5101485;27;47904;-70
2022/05/02 00:31:12;;;;;;;;;38.25;36.25;;;;;13.11;52.52;101688.19;5096528;27;45442;-71
2022/05/02 00:33:37;;;;;;;;;41.50;35.00;;;;;13.05;52.45;101683.31;5083777;27;45541;-70
2022/05/02 00:36:03;;;;;;;;;47.25;38.00;;;;;13.04;52.32;101681.59;5100967;27;45576;-70
2022/05/02 00:38:29;;;;;;;;;49.25;42.00;;;;;13.05;52.15;101690.63;5102528;27;45517;-70
2022/05/02 00:40:55;;;;;;;;;43.25;38.00;;;;;13.00;52.43;101685.63;5101328;27;45416;-70
2022/05/02 00:43:20;;;;;;;;;55.75;44.50;;;;;12.97;52.74;101694.06;5090552;27;45322;-70
2022/05/02 00:45:46;;;;;;;;;44.25;34.00;;;;;12.81;52.75;101663.75;5100247;27;45446;-70
2022/05/02 00:48:11;;;;;;;;;48.00;41.50;;;;;13.04;52.36;101687.03;5092596;27;45585;-70
2022/05/02 00:50:42;;;;;;;;;42.75;39.00;;;;;13.12;51.96;101684.47;5104864;27;45363;-70
2022/05/02 00:53:14;;;;;;;;;43.00;36.00;;;;;13.05;52.34;101680.59;5093747;27;45220;-70
2022/05/02 00:55:40;;;;;;;;;48.50;38.00;;;;;13.10;52.10;101675.56;5105699;27;45266;-70
2022/05/02 00:58:06;;;;;;;;;37.00;31.75;;;;;13.14;52.79;101681.66;5091751;27;46215;-70
2022/05/02 01:00:35;;;;;;;;;39.75;33.00;;;;;13.09;52.02;101662.06;5104025;27;45320;-70
2022/05/02 01:03:02;;;;;;;;;33.50;30.75;;;;;13.12;51.95;101668.09;5092071;27;45349;-70
2022/05/02 01:05:27;;;;;;;;;34.75;33.00;;;;;13.05;52.56;101656.03;5103793;27;45349;-70
2022/05/02 01:07:52;;;;;;;;;29.75;25.75;;;;;13.11;51.97;101666.38;5091996;27;45359;-70
2022/05/02 01:10:18;;;;;;;;;29.75;26.00;;;;;13.09;52.54;101646.56;5094832;27;45526;-70
2022/05/02 01:12:48;;;;;;;;;30.75;28.25;;;;;13.10;51.58;101645.56;5089985;27;45477;-70
2022/05/02 01:15:15;;;;;;;;;34.00;29.50;;;;;12.95;52.27;101637.94;5106191;27;45427;-70
2022/05/02 01:17:41;;;;;;;;;34.75;29.00;;;;;12.90;52.54;101638.38;5104774;27;45352;-70
2022/05/02 01:20:08;;;;;;;;;26.50;22.00;;;;;12.76;53.16;101641.50;5100117;27;45345;-70
2022/05/02 01:22:33;;;;;;;;;29.00;27.25;;;;;12.72;53.15;101640.91;5106225;27;45461;-70
2022/05/02 01:24:59;;;;;;;;;24.75;21.25;;;;;12.73;53.39;101645.34;5105921;27;45309;-70
2022/05/02 01:27:24;;;;;;;;;20.25;20.25;;;;;12.75;53.00;101637.03;5105621;27;46594;-70
2022/05/02 01:29:49;;;;;;;;;21.50;19.75;;;;;12.68;53.35;101639.47;5105632;27;45454;-70
2022/05/02 01:32:15;;;;;;;;;23.00;22.25;;;;;12.54;53.90;101639.88;5105973;27;45349;-71
2022/05/02 01:34:42;;;;;;;;;20.75;18.00;;;;;12.61;53.73;101645.63;5105877;27;45509;-70
2022/05/02 01:37:09;;;;;;;;;21.00;17.00;;;;;12.65;52.83;101637.00;5105750;27;45763;-70
2022/05/02 01:39:35;;;;;;;;;20.75;19.00;;;;;12.64;53.63;101650.81;5101951;27;45301;-70
2022/05/02 01:42:05;;;;;;;;;22.25;20.00;;;;;12.52;54.16;101635.56;5103917;27;45328;-70
2022/05/02 01:44:30;;;;;;;;;18.33;16.00;;;;;12.59;53.26;101647.63;5095279;27;45329;-70
2022/05/02 01:46:56;;;;;;;;;19.75;19.75;;;;;12.60;53.94;101646.63;5101548;27;48125;-70
2022/05/02 01:49:22;;;;;;;;;20.75;20.25;;;;;12.58;53.71;101643.16;5093313;27;45419;-70
2022/05/02 01:51:48;;;;;;;;;23.00;19.75;;;;;12.41;54.12;101637.41;5101611;27;45400;-70
2022/05/02 01:54:14;;;;;;;;;22.75;21.00;;;;;12.35;55.10;101654.28;5092821;27;45495;-70
2022/05/02 01:56:39;;;;;;;;;22.00;17.75;;;;;12.36;54.53;101653.28;5098807;27;45349;-70
2022/05/02 01:59:05;;;;;;;;;27.25;24.25;;;;;12.27;54.77;101648.66;5090286;27;45353;-70
2022/05/02 02:01:30;;;;;;;;;22.25;20.50;;;;;12.28;54.74;101644.06;5097506;27;45407;-70
2022/05/02 02:03:56;;;;;;;;;21.75;21.75;;;;;12.33;55.04;101642.69;5090189;27;45399;-70
2022/05/02 02:06:22;;;;;;;;;21.50;20.00;;;;;12.26;54.53;101637.91;5102169;27;47978;-70
2022/05/02 02:08:49;;;;;;;;;22.00;20.00;;;;;12.28;54.62;101644.94;5088365;27;45313;-70
2022/05/02 02:11:14;;;;;;;;;26.50;24.00;;;;;12.26;54.68;101646.97;5094484;27;45301;-70
2022/05/02 02:13:40;;;;;;;;;26.75;22.75;;;;;12.23;55.08;101644.50;5086276;27;45276;-71
2022/05/02 02:16:09;;;;;;;;;22.25;20.50;;;;;12.21;55.06;101641.03;5104889;27;45432;-70
2022/05/02 02:18:36;;;;;;;;;23.75;19.00;;;;;12.29;54.73;101652.13;5098380;27;45270;-70
2022/05/02 02:21:02;;;;;;;;;23.75;20.75;;;;;12.21;54.53;101643.75;5102836;27;45364;-70
2022/05/02 02:23:27;;;;;;;;;25.25;22.50;;;;;12.21;54.98;101643.75;5096129;27;45402;-70
2022/05/02 02:25:53;;;;;;;;;26.75;25.00;;;;;12.07;55.47;101636.81;5100461;27;45853;-70
2022/05/02 02:28:18;;;;;;;;;29.50;25.50;;;;;12.13;54.90;101640.84;5104528;27;45276;-70
2022/05/02 02:30:44;;;;;;;;;23.00;18.75;;;;;12.17;54.75;101631.44;5104012;27;45233;-69
2022/05/02 02:33:11;;;;;;;;;24.75;20.00;;;;;12.17;55.12;101636.00;5105258;27;45377;-69
2022/05/02 02:35:37;;;;;;;;;27.75;22.50;;;;;12.22;54.94;101634.59;5103499;27;46796;-70
2022/05/02 02:38:02;;;;;;;;;24.75;23.00;;;;;12.13;55.44;101629.97;5096945;27;45256;-69
2022/05/02 02:40:29;;;;;;;;;28.75;25.75;;;;;12.09;55.39;101625.81;5100361;27;45251;-69
2022/05/02 02:42:55;;;;;;;;;26.50;23.00;;;;;12.07;55.49;101633.22;5096812;27;45374;-69
2022/05/02 02:45:20;;;;;;;;;26.00;22.25;;;;;12.05;55.46;101627.09;5098825;27;46116;-69
2022/05/02 02:47:46;;;;;;;;;30.75;25.50;;;;;12.12;55.35;101625.53;5095626;27;45632;-70
2022/05/02 02:50:11;;;;;;;;;20.50;18.75;;;;;12.19;54.83;101632.16;5099119;27;45507;-69
2022/05/02 02:52:37;;;;;;;;;32.00;25.50;;;;;12.23;54.98;101630.00;5097136;27;45336;-70
2022/05/02 02:55:03;;;;;;;;;28.00;24.75;;;;;12.19;55.00;101629.44;5096533;27;47250;-70
2022/05/02 02:57:29;;;;;;;;;27.75;24.50;;;;;12.21;54.29;101619.25;5099513;27;45516;-69
2022/05/02 02:59:55;;;;;;;;;27.25;25.75;;;;;12.15;54.61;101616.22;5101783;27;45382;-70
2022/05/02 03:02:21;;;;;;;;;28.25;25.50;;;;;12.17;54.47;101614.22;5091511;27;45400;-70
2022/05/02 03:07:30;;;;;;;;;30.75;24.75;;;;;12.15;54.75;101616.22;5092879;27;45242;-69
2022/05/02 03:09:57;;;;;;;;;35.25;27.25;;;;;12.19;54.26;101617.69;5092477;27;47510;-69
2022/05/02 03:12:23;;;;;;;;;35.25;24.00;;;;;12.10;54.99;101608.47;5088005;27;45342;-70
2022/05/02 03:14:48;;;;;;;;;31.75;27.75;;;;;11.95;55.70;101601.66;5092917;27;46038;-70
2022/05/02 03:17:14;;;;;;;;;26.25;22.75;;;;;11.86;56.02;101602.47;5104279;27;45238;-70
2022/05/02 03:19:39;;;;;;;;;27.00;24.25;;;;;11.83;56.06;101610.94;5096655;27;45601;-70
2022/05/02 03:22:05;;;;;;;;;30.25;27.50;;;;;11.69;56.41;101604.78;5104716;27;45516;-70
2022/05/02 03:24:31;;;;;;;;;32.50;26.00;;;;;11.68;56.63;101603.06;5101884;27;47189;-69
2022/05/02 03:26:56;;;;;;;;;30.00;22.75;;;;;11.73;56.59;101593.63;5103767;27;45258;-69
2022/05/02 03:29:22;;;;;;;;;24.50;24.50;;;;;11.68;56.68;101596.78;5098210;27;45483;-70
2022/05/02 03:31:47;;;;;;;;;27.50;26.25;;;;;11.67;56.56;101587.75;5093334;27;45365;-69
2022/05/02 03:34:13;;;;;;;;;22.25;22.00;;;;;11.61;56.90;101585.56;5089242;27;45610;-69
2022/05/02 03:36:39;;;;;;;;;25.25;20.50;;;;;11.57;57.02;101594.09;5103760;27;45396;-69
2022/05/02 03:39:05;;;;;;;;;36.25;33.00;;;;;11.46;57.80;101586.03;5090182;27;45304;-69
2022/05/02 03:41:31;;;;;;;;;29.75;22.75;;;;;11.57;56.13;101591.38;5095456;27;45391;-69
2022/05/02 03:43:57;;;;;;;;;26.50;22.25;;;;;11.55;57.20;101591.50;5100683;27;47302;-69
2022/05/02 03:46:22;;;;;;;;;36.00;32.00;;;;;11.50;57.65;101588.34;5098942;27;45789;-69
2022/05/02 03:48:48;;;;;;;;;33.50;27.50;;;;;11.46;57.42;101594.19;5100305;27;45534;-70
2022/05/02 03:51:13;;;;;;;;;30.50;26.00;;;;;11.36;58.06;101585.97;5098513;27;45541;-70
2022/05/02 03:53:38;;;;;;;;;34.25;29.50;;;;;11.37;57.98;101582.25;5102962;27;45989;-70
2022/05/02 03:56:04;;;;;;;;;34.25;27.50;;;;;11.47;57.37;101591.31;5097754;27;45401;-69
2022/05/02 03:58:30;;;;;;;;;37.00;34.00;;;;;11.52;57.28;101577.34;5086798;27;45247;-69
2022/05/02 04:00:55;;;;;;;;;35.50;30.75;;;;;11.57;57.49;101591.38;5097173;27;45288;-70
2022/05/02 04:03:21;;;;;;;;;41.00;32.00;;;;;11.51;57.13;101583.78;5086173;27;45605;-69
2022/05/02 04:05:46;;;;;;;;;34.50;30.75;;;;;11.54;57.23;101583.50;5102821;27;45458;-70
2022/05/02 04:08:12;;;;;;;;;35.75;28.00;;;;;11.60;57.05;101594.72;5086772;27;45715;-70
2022/05/02 04:10:37;;;;;;;;;28.25;27.75;;;;;11.65;56.63;101587.00;5093384;27;45435;-69
2022/05/02 04:13:03;;;;;;;;;39.50;31.75;;;;;11.66;56.67;101587.88;5098360;27;47100;-70
2022/05/02 04:15:28;;;;;;;;;35.25;30.50;;;;;11.67;56.93;101593.19;5100248;27;45332;-69
2022/05/02 04:17:55;;;;;;;;;37.75;30.00;;;;;11.63;56.92;101594.44;5099034;27;45509;-69
2022/05/02 04:20:22;;;;;;;;;34.00;28.75;;;;;11.64;56.72;101590.72;5096216;27;45515;-68
2022/05/02 04:22:47;;;;;;;;;30.50;27.00;;;;;11.68;56.27;101594.91;5086223;27;46777;-69
2022/05/02 04:25:12;;;;;;;;;35.75;29.50;;;;;11.64;56.60;101590.72;5097310;27;45451;-69
2022/05/02 04:27:38;;;;;;;;;37.25;31.75;;;;;11.65;57.06;101591.59;5106584;27;45464;-69
2022/05/02 04:30:04;;;;;;;;;35.50;29.75;;;;;11.59;57.50;101587.53;5106873;27;45349;-70
2022/05/02 04:32:30;;;;;;;;;36.25;33.00;;;;;11.60;57.20;101594.72;5105246;27;47165;-70
2022/05/02 04:34:58;;;;;;;;;34.00;31.50;;;;;11.62;56.24;101587.25;5104599;27;45312;-70
2022/05/02 04:37:24;;;;;;;;;37.00;34.50;;;;;11.66;56.82;101591.44;5105325;27;45418;-70
2022/05/02 04:39:49;;;;;;;;;42.75;36.00;;;;;11.59;57.27;101586.69;5105470;27;45538;-70
2022/05/02 04:42:15;;;;;;;;;30.75;29.75;;;;;11.60;56.81;101589.28;5100111;27;45400;-70
2022/05/02 04:44:40;;;;;;;;;31.75;29.00;;;;;11.68;56.61;101591.31;5095963;27;45459;-70
2022/05/02 04:47:06;;;;;;;;;40.50;36.00;;;;;11.71;56.62;101597.34;5099525;27;45360;-70
2022/05/02 04:49:32;;;;;;;;;47.75;37.50;;;;;11.70;56.49;101590.16;5095780;27;45251;-70
2022/05/02 04:51:57;;;;;;;;;38.00;34.50;;;;;11.78;56.19;101589.53;5100051;27;47522;-70
2022/05/02 04:54:22;;;;;;;;;41.25;34.75;;;;;11.65;57.06;101589.72;5105709;27;45267;-69
2022/05/02 04:56:48;;;;;;;;;43.00;36.50;;;;;11.56;57.30;101595.97;5095432;27;45340;-70
2022/05/02 04:59:13;;;;;;;;;39.25;32.50;;;;;11.59;57.01;101594.84;5095587;27;45507;-70
2022/05/02 05:01:38;;;;;;;;;35.00;28.50;;;;;11.55;57.42;101599.69;5095898;27;46108;-69
2022/05/02 05:04:04;;;;;;;;;44.50;37.50;;;;;11.65;57.10;101592.44;5091050;27;45619;-70
2022/05/02 05:06:29;;;;;;;;;36.50;33.00;;;;;11.73;57.38;101602.66;5101681;27;45444;-70
2022/05/02 05:08:55;;;;;;;;;41.75;35.00;;;;;11.78;57.15;101602.28;5093782;27;45668;-70
2022/05/02 05:11:26;;;;;;;;;42.75;34.25;;;;;11.87;56.10;101601.47;5104378;27;47026;-70
2022/05/02 05:17:10;;;;;;;;;38.50;34.00;;;;;11.99;55.48;101601.22;5088504;27;45467;-70
2022/05/02 05:19:47;;;;;;;;;42.50;35.50;;;;;12.09;55.46;101595.84;5095630;27;45332;-70
2022/05/02 05:23:03;;;;;;;;;36.00;32.25;;;;;12.11;55.67;101599.28;5099535;27;46319;-70
2022/05/02 05:25:42;;;;;;;;;40.25;36.00;;;;;12.08;55.82;101602.28;5075750;28;45447;-70
2022/05/02 05:28:26;;;;;;;;;37.50;28.25;;;;;12.14;55.28;101596.28;5056346;28;45405;-70
2022/05/02 05:31:17;;;;;;;;;45.50;38.25;;;;;12.16;55.55;101587.97;5097849;27;45510;-69
2022/05/02 05:34:01;;;;;;;;;43.00;36.25;;;;;12.21;55.21;101600.16;5100278;27;45439;-69
2022/05/02 05:37:08;;;;;;;;;43.00;35.75;;;;;12.34;55.11;101600.81;5098170;27;45940;-69
2022/05/02 05:39:45;;;;;;;;;47.50;37.25;;;;;12.44;54.70;101592.63;5100399;27;46029;-69
2022/05/02 05:42:52;;;;;;;;;43.50;37.25;;;;;12.39;54.82;101595.78;5098553;27;45561;-69
2022/05/02 05:45:50;;;;;;;;;40.50;35.50;;;;;12.27;54.91;101588.72;5078041;27;46281;-70
2022/05/02 05:48:43;;;;;;;;;44.75;37.50;;;;;12.27;54.89;101590.59;5095767;27;45283;-68
2022/05/02 05:51:28;;;;;;;;;48.25;39.75;;;;;12.30;55.33;101596.63;5098556;27;45529;-69
2022/05/02 05:54:19;;;;;;;;;49.00;39.25;;;;;12.33;55.25;101595.50;5089598;27;45366;-69
2022/05/02 05:57:27;;;;;;;;;49.25;38.75;;;;;12.49;53.88;101587.66;5083463;27;48523;-69
2022/05/02 06:00:06;;;;;;;;;50.25;40.25;;;;;12.45;54.34;101594.38;5071873;28;45413;-68
2022/05/02 06:02:55;;;;;;;;;50.75;40.00;;;;;12.53;53.79;101601.84;5068563;28;45272;-71
2022/05/02 06:05:21;;;;;;;;;50.50;39.25;;;;;12.61;54.11;101593.81;5094249;27;45259;-70
2022/05/02 06:07:47;;;;;;;;;52.75;42.25;;;;;12.60;53.99;101595.69;5091200;27;45315;-70
2022/05/02 06:10:16;;;;;;;;;47.25;39.25;;;;;12.72;53.84;101589.09;5091487;27;45346;-71
2022/05/02 06:12:42;;;;;;;;;46.75;40.50;;;;;12.75;53.53;101590.69;5110382;27;45489;-71
2022/05/02 06:18:27;;;;;;;;;35.25;33.00;;;;;12.75;53.20;101593.41;5086337;27;45374;-71
2022/05/02 06:20:57;;;;;;;;;57.00;42.50;;;;;12.91;53.15;101603.78;5103963;27;45168;-70
2022/05/02 06:23:25;;;;;;;;;47.75;37.50;;;;;12.86;53.29;101602.31;5103500;27;45447;-71
2022/05/02 06:25:53;;;;;;;;;47.25;36.75;;;;;13.08;53.01;101595.72;5100004;27;45297;-70
2022/05/02 06:28:23;;;;;;;;;53.50;39.50;;;;;13.11;52.30;101602.75;5104018;27;45874;-70
2022/05/02 06:30:53;;;;;;;;;40.75;34.25;;;;;13.04;52.60;101597.03;5101053;27;45470;-71
2022/05/02 06:33:20;;;;;;;;;53.75;40.00;;;;;13.28;52.33;101601.22;5083419;27;45402;-70
2022/05/02 06:36:24;;;;;;;;;51.50;38.75;;;;;13.30;52.16;101604.63;5102066;27;45587;-70
2022/05/02 06:39:23;;;;;;;;;45.00;38.75;;;;;13.48;51.69;101602.91;5089686;27;46709;-69
2022/05/02 06:42:22;;;;;;;;;50.25;40.75;;;;;13.55;51.44;101601.31;5103089;27;45309;-69
2022/05/02 06:44:57;;;;;;;;;48.25;36.50;;;;;13.49;51.75;101599.16;5102648;27;45495;-71
2022/05/02 06:47:59;;;;;;;;;49.00;37.25;;;;;13.66;51.29;101595.69;5099199;27;45359;-69
2022/05/02 06:50:26;;;;;;;;;38.25;33.50;;;;;13.78;50.96;101610.88;5088190;27;46185;-69
2022/05/02 06:52:57;;;;;;;;;43.50;36.50;;;;;13.63;51.74;101612.34;5091938;27;45363;-70
2022/05/02 06:55:22;;;;;;;;;34.50;32.50;;;;;13.55;50.50;101615.81;5094636;27;45328;-70
2022/05/02 06:58:19;;;;;;;;;44.50;35.50;;;;;13.71;50.97;101609.75;5090804;27;45535;-69
2022/05/02 07:00:57;;;;;;;;;53.25;41.00;;;;;13.78;50.65;101596.38;5102835;27;45382;-70
2022/05/02 07:03:46;;;;;;;;;43.50;36.00;;;;;13.99;50.39;101608.78;5084742;27;45874;-70
2022/05/02 07:06:29;;;;;;;;;48.50;38.50;;;;;14.01;50.00;101614.13;5101513;27;45294;-70
2022/05/02 07:09:04;;;;;;;;;42.25;35.75;;;;;13.83;49.87;101611.28;5091643;27;45406;-70
2022/05/02 07:12:17;;;;;;;;;45.50;36.75;;;;;13.84;49.59;101623.94;5100090;27;45988;-69
2022/05/02 07:15:04;;;;;;;;;41.25;34.50;;;;;13.78;49.56;101619.06;5023151;28;45443;-70
2022/05/02 07:17:57;;;;;;;;;43.00;36.00;;;;;13.75;49.56;101613.91;5087013;27;45377;-70
2022/05/02 07:20:29;;;;;;;;;45.25;38.75;;;;;13.70;49.62;101613.50;5099809;27;45430;-70
2022/05/02 07:23:25;;;;;;;;;48.50;38.50;;;;;13.67;49.54;101613.78;5103757;27;45338;-70
2022/05/02 07:25:56;;;;;;;;;44.25;34.00;;;;;14.03;49.27;101614.81;5093085;27;45384;-69
2022/05/02 07:28:40;;;;;;;;;34.50;32.25;;;;;14.33;48.99;101622.72;5101620;27;45452;-70
2022/05/02 07:31:08;;;;;;;;;37.25;33.00;;;;;14.41;48.33;101609.19;5101496;27;45364;-69
2022/05/02 07:33:38;;;;;;;;;46.25;38.00;;;;;14.41;48.13;101608.34;5091542;27;46195;-70
2022/05/02 07:36:05;;;;;;;;;49.25;38.75;;;;;14.31;48.51;101615.72;5100606;27;45486;-69
2022/05/02 07:38:33;;;;;;;;;44.00;38.25;;;;;14.10;48.71;101609.63;5090130;27;45414;-69
2022/05/02 07:43:51;;;;;;;;;49.75;39.50;;;;;14.31;48.84;101607.50;5088906;27;45853;-69
2022/05/02 07:46:23;;;;;;;;;45.50;38.50;;;;;14.65;48.13;101613.25;5098537;27;45360;-70
2022/05/02 07:48:51;;;;;;;;;44.50;35.75;;;;;14.79;47.74;101618.19;5100886;27;45341;-70
2022/05/02 07:51:18;;;;;;;;;43.75;35.25;;;;;14.95;47.01;101598.34;5097884;27;45370;-69
2022/05/02 07:53:45;;;;;;;;;44.75;36.50;;;;;14.95;47.51;101601.94;5086304;27;45257;-70
2022/05/02 07:56:13;;;;;;;;;47.00;38.25;;;;;15.14;46.64;101611.84;5095693;27;45202;-70
2022/05/02 07:58:40;;;;;;;;;46.75;36.50;;;;;15.19;46.29;101615.00;5084299;27;45261;-69
2022/05/02 08:01:05;;;;;;;;;54.25;43.00;;;;;15.19;46.41;101612.28;5095671;27;45306;-69
2022/05/02 08:03:32;;;;;;;;;42.75;35.50;;;;;15.49;45.84;101622.75;5087536;27;46946;-69
2022/05/02 08:06:11;;;;;;;;;43.50;35.25;;;;;15.71;45.70;101610.47;5102960;27;45345;-69
2022/05/02 08:08:49;;;;;;;;;43.50;36.25;;;;;16.09;45.08;101617.38;5099386;27;45437;-68
2022/05/02 08:11:25;;;;;;;;;45.00;36.00;;;;;16.39;44.34;101617.88;5102019;27;45482;-71
2022/05/02 08:14:02;;;;;;;;;54.00;41.75;;;;;16.28;44.32;101617.16;5101102;27;45385;-71
2022/05/02 08:16:32;;;;;;;;;48.75;39.50;;;;;15.97;44.79;101610.47;5093739;27;45520;-70
2022/05/02 08:19:39;;;;;;;;;40.50;35.00;;;;;15.64;45.83;101619.47;5085768;27;45263;-69
2022/05/02 08:28:07;;;;;;;;;51.00;37.00;;;;;16.58;44.01;101609.38;5086934;27;45344;-69
2022/05/02 08:30:58;;;;;;;;;44.00;37.50;;;;;16.69;42.96;101603.59;5100913;27;45399;-70
2022/05/02 08:33:31;;;;;;;;;51.00;38.75;;;;;17.03;43.02;101601.59;5080871;27;45554;-69
2022/05/02 08:36:30;;;;;;;;;52.50;38.75;;;;;16.74;43.71;101599.31;5099606;27;45365;-69
2022/05/02 08:39:03;;;;;;;;;47.75;39.50;;;;;17.18;42.91;101596.31;5089261;27;45506;-72
2022/05/02 08:41:28;;;;;;;;;49.25;38.00;;;;;16.89;43.59;101595.94;5093817;27;45481;-69
2022/05/02 08:44:11;;;;;;;;;51.50;40.75;;;;;16.83;43.49;101605.69;5099792;27;45414;-69
2022/05/02 08:46:36;;;;;;;;;49.75;40.25;;;;;17.29;43.55;101609.72;5099763;27;45764;-69
2022/05/02 08:49:33;;;;;;;;;44.75;37.00;;;;;17.73;42.85;101601.13;5086386;27;45290;-69
2022/05/02 08:52:17;;;;;;;;;43.50;35.00;;;;;17.67;41.72;101591.69;5098577;27;45258;-70
2022/05/02 08:55:20;;;;;;;;;49.50;39.50;;;;;17.70;42.28;101598.72;5102142;27;45236;-69
2022/05/02 08:58:25;;;;;;;;;44.50;38.50;;;;;17.89;41.61;101596.47;5082360;27;47311;-70
2022/05/02 09:01:21;;;;;;;;;48.50;40.00;;;;;18.13;41.02;101605.66;5092209;27;45287;-69
2022/05/02 09:03:56;;;;;;;;;51.75;40.00;;;;;18.37;40.69;101593.72;5101725;27;45234;-70
2022/05/02 09:06:58;;;;;;;;;50.25;40.00;;;;;18.49;41.04;101595.88;5100687;27;45333;-70
2022/05/02 09:09:51;;;;;;;;;46.00;38.00;;;;;18.92;39.88;101599.13;5090276;27;46158;-70
2022/05/02 09:12:44;;;;;;;;;50.25;40.75;;;;;18.45;39.88;101589.03;5098327;27;45802;-70
2022/05/02 09:15:11;;;;;;;;;48.50;39.75;;;;;18.32;40.26;101588.75;5105170;27;45561;-70
2022/05/02 09:18:01;;;;;;;;;49.50;40.00;;;;;18.19;41.08;101596.72;5104024;27;45441;-70
2022/05/02 09:21:16;;;;;;;;;49.50;39.75;;;;;18.72;41.27;101587.72;5101435;27;46464;-70
2022/05/02 09:24:08;;;;;;;;;49.50;40.00;;;;;18.60;39.74;101586.41;5033048;28;45421;-70
2022/05/02 09:27:03;;;;;;;;;48.00;39.25;;;;;19.22;39.20;101576.16;5014936;28;45194;-70
2022/05/02 09:30:01;;;;;;;;;40.25;35.25;;;;;19.67;38.46;101574.41;5091275;27;45443;-70
2022/05/02 09:32:46;;;;;;;;;43.25;37.00;;;;;19.85;37.92;101574.91;5099716;27;47485;-68
2022/05/02 09:35:17;;;;;;;;;45.00;35.50;;;;;20.09;37.36;101577.38;5102808;27;45380;-68
2022/05/02 09:37:58;;;;;;;;;47.75;39.00;;;;;20.65;36.62;101566.69;5099413;27;45337;-69
2022/05/02 09:40:38;;;;;;;;;40.25;31.75;;;;;20.23;36.37;101553.63;5099708;27;45367;-68
2022/05/02 09:50:12;;;;;;;;;45.75;38.00;;;;;20.01;36.82;101574.75;5103887;27;45447;-69
2022/05/02 09:53:00;;;;;;;;;44.00;37.25;;;;;19.96;37.44;101563.41;5105411;27;45504;-68
2022/05/02 09:58:33;;;;;;;;;45.75;38.00;;;;;19.22;38.63;101556.00;5084781;27;45378;-69
2022/05/02 10:01:20;;;;;;;;;39.50;33.75;;;;;19.39;38.60;101563.09;5103379;27;45349;-69
2022/05/02 10:03:52;;;;;;;;;48.25;40.25;;;;;19.62;37.85;101557.59;5103610;27;45348;-69
2022/05/02 10:06:27;;;;;;;;;48.00;39.25;;;;;20.08;37.86;101563.81;5106063;27;45420;-69
2022/05/02 10:09:00;;;;;;;;;41.75;34.00;;;;;19.92;37.75;101537.25;5093452;27;45201;-68
2022/05/02 10:11:35;;;;;;;;;41.00;35.00;;;;;20.45;36.80;101549.91;5100109;27;45318;-68
2022/05/02 10:14:03;;;;;;;;;42.75;36.25;;;;;20.52;36.15;101550.84;5096620;27;45591;-68
2022/05/02 10:16:31;;;;;;;;;42.00;34.75;;;;;20.23;35.71;101558.28;5104422;27;45441;-69
2022/05/02 10:19:18;;;;;;;;;45.25;38.25;;;;;20.23;36.58;101553.63;5096308;27;45305;-69
2022/05/02 10:21:52;;;;;;;;;41.00;32.25;;;;;21.00;35.22;101548.38;5096519;27;45443;-69
2022/05/02 10:24:38;;;;;;;;;42.75;36.50;;;;;21.12;34.93;101549.53;5090941;27;45333;-69
2022/05/02 10:27:47;;;;;;;;;43.25;36.00;;;;;20.82;35.25;101545.22;5096359;27;45392;-69
2022/05/02 10:30:13;;;;;;;;;37.75;31.75;;;;;21.16;34.67;101541.72;5075431;27;45434;-67
2022/05/02 10:32:53;;;;;;;;;32.25;28.75;;;;;21.71;33.92;101538.16;5104100;27;45261;-68
2022/05/02 10:35:21;;;;;;;;;34.00;33.00;;;;;21.67;33.71;101550.69;5098003;27;45411;-68
2022/05/02 10:37:58;;;;;;;;;31.75;29.50;;;;;21.49;33.60;101537.34;5103459;27;45353;-69
2022/05/02 10:40:40;;;;;;;;;39.50;30.25;;;;;21.79;32.94;101548.22;5103710;27;45368;-69
2022/05/02 10:43:08;;;;;;;;;31.50;31.00;;;;;22.11;33.59;101542.06;5083863;27;45252;-69
2022/05/02 10:45:36;;;;;;;;;40.00;34.75;;;;;21.73;33.46;101528.59;5096198;27;45563;-69
2022/05/02 10:48:17;;;;;;;;;33.75;29.00;;;;;21.73;33.73;101531.38;5083382;27;45414;-69
2022/05/02 10:50:53;;;;;;;;;41.25;36.75;;;;;21.47;33.74;101536.72;5097144;27;45519;-69
2022/05/02 10:53:42;;;;;;;;;45.00;38.00;;;;;21.40;34.54;101534.97;5089910;27;45338;-69
2022/05/02 10:56:36;;;;;;;;;42.00;34.50;;;;;21.52;33.61;101531.44;5104029;27;45460;-69
2022/05/02 10:59:04;;;;;;;;;40.50;34.50;;;;;20.99;34.46;101528.19;5100086;27;45576;-70
2022/05/02 11:01:59;;;;;;;;;49.00;40.00;;;;;21.06;35.14;101528.25;5094763;27;45442;-69
2022/05/02 11:04:36;;;;;;;;;32.75;32.00;;;;;21.16;34.87;101526.03;5103843;27;45502;-70
2022/05/02 11:07:26;;;;;;;;;42.50;36.00;;;;;21.24;34.15;101522.28;5087186;27;45249;-69
2022/05/02 11:09:55;;;;;;;;;30.00;29.75;;;;;21.06;34.46;101519.09;5109343;27;47590;-69
2022/05/02 11:12:27;;;;;;;;;34.75;32.00;;;;;20.92;34.99;101513.44;5103212;27;45220;-69
2022/05/02 11:15:23;;;;;;;;;37.75;34.25;;;;;20.88;35.44;101503.84;5103104;27;45337;-69
2022/05/02 11:18:07;;;;;;;;;34.00;32.00;;;;;21.81;34.47;101516.53;5098220;27;45271;-69
2022/05/02 11:21:02;;;;;;;;;27.75;27.00;;;;;22.56;33.25;101514.78;5099136;27;46396;-69
2022/05/02 11:23:28;;;;;;;;;33.25;32.25;;;;;21.99;33.11;101516.03;5091956;27;45526;-68
2022/05/02 11:26:12;;;;;;;;;36.25;32.25;;;;;21.81;34.16;101508.22;5102017;27;45350;-69
2022/05/02 11:28:52;;;;;;;;;37.25;32.75;;;;;22.22;33.29;101499.94;5103470;27;45345;-69
2022/05/02 11:31:34;;;;;;;;;32.00;32.00;;;;;22.68;32.64;101496.50;5101453;27;45978;-70
2022/05/02 11:34:17;;;;;;;;;27.00;26.00;;;;;23.25;32.24;101507.03;5090116;27;45321;-69
2022/05/02 11:36:53;;;;;;;;;37.25;33.50;;;;;23.57;31.95;101499.78;5101092;27;45378;-70
2022/05/02 11:39:49;;;;;;;;;36.75;32.75;;;;;22.95;31.48;101502.94;5090994;27;45474;-70
2022/05/02 11:42:18;;;;;;;;;37.00;31.75;;;;;22.64;32.34;101495.22;5072045;27;46206;-71
2022/05/02 11:45:10;;;;;;;;;36.50;33.00;;;;;22.59;32.60;101478.34;5101124;27;45462;-71
2022/05/02 11:48:04;;;;;;;;;31.25;28.00;;;;;22.81;32.47;101496.53;5093105;27;45341;-70
2022/05/02 11:50:42;;;;;;;;;38.75;32.50;;;;;23.08;31.72;101495.53;5095392;27;46220;-70
2022/05/02 11:53:09;;;;;;;;;28.00;26.00;;;;;22.81;32.32;101482.69;5082859;27;45440;-71
2022/05/02 11:55:36;;;;;;;;;27.00;22.50;;;;;22.40;33.31;101497.47;5093475;27;45477;-70
2022/05/02 11:58:07;;;;;;;;;34.75;31.00;;;;;22.67;32.54;101483.69;5089353;27;45444;-71
2022/05/02 12:00:35;;;;;;;;;27.50;27.50;;;;;22.33;32.66;101506.81;5092861;27;45286;-70
2022/05/02 12:03:15;;;;;;;;;35.00;33.50;;;;;21.87;33.61;101487.19;5088336;27;46342;-70
2022/05/02 12:05:52;;;;;;;;;27.00;25.25;;;;;21.45;34.19;101479.91;5096388;27;45403;-71
2022/05/02 12:08:44;;;;;;;;;34.75;30.50;;;;;21.77;33.59;101486.72;5102141;27;45413;-71